Time;durP1;ratioP1;P1;durP2;ratioP2;P2;SDS_P1;SDS_P2;PMS_P1;PMS_P2;Temp;Humidity;BMP_temperature;BMP_pressure;BME280_temperature;BME280_humidity;BME280_pressure;Samples;Min_cycle;Max_cycle;Signal;HPM_P1;HPM_P2
2022/09/05 00:01:48;;;;;;;0.50;0.50;;;;;;;;;;4972116;28;20677;-88
2022/09/05 00:04:20;;;;;;;0.40;0.40;;;;;;;;;;4969446;28;20237;-88
2022/09/05 00:06:52;;;;;;;0.43;0.43;;;;;;;;;;4953218;28;20194;-88
2022/09/05 00:09:24;;;;;;;0.40;0.40;;;;;;;;;;4956631;28;20243;-88
2022/09/05 00:11:54;;;;;;;0.43;0.43;;;;;;;;;;4977797;28;20203;-88
2022/09/05 00:14:31;;;;;;;0.40;0.40;;;;;;;;;;4991347;28;20243;-88
2022/09/05 00:17:04;;;;;;;0.90;0.83;;;;;;;;;;4991869;28;20196;-89
2022/09/05 00:19:37;;;;;;;0.60;0.60;;;;;;;;;;4991064;28;20236;-89
2022/09/05 00:22:11;;;;;;;0.40;0.40;;;;;;;;;;4992165;28;20224;-90
2022/09/05 00:24:44;;;;;;;0.37;0.37;;;;;;;;;;4990969;28;20698;-88
2022/09/05 00:27:17;;;;;;;0.43;0.43;;;;;;;;;;4992376;28;20533;-88
2022/09/05 00:30:02;;;;;;;0.50;0.50;;;;;;;;;;4990893;28;20240;-88
2022/09/05 00:32:36;;;;;;;0.33;0.33;;;;;;;;;;4984478;22;20233;-83
2022/09/05 00:35:14;;;;;;;0.50;0.50;;;;;;;;;;4957367;28;20328;-84
2022/09/05 00:37:44;;;;;;;0.40;0.40;;;;;;;;;;4948310;29;20198;-84
2022/09/05 00:40:19;;;;;;;0.43;0.43;;;;;;;;;;4938593;28;20234;-84
2022/09/05 00:42:49;;;;;;;0.40;0.40;;;;;;;;;;4932699;29;20652;-84
2022/09/05 00:45:17;;;;;;;0.47;0.47;;;;;;;;;;4932271;28;20242;-83
2022/09/05 00:47:47;;;;;;;0.40;0.40;;;;;;;;;;4932354;29;20194;-84
2022/09/05 00:50:19;;;;;;;0.53;0.53;;;;;;;;;;4932560;28;20241;-84
2022/09/05 00:52:48;;;;;;;1.70;0.83;;;;;;;;;;4932742;29;20233;-84
2022/09/05 00:55:21;;;;;;;0.40;0.40;;;;;;;;;;4932003;28;20226;-84
2022/09/05 00:58:04;;;;;;;0.57;0.57;;;;;;;;;;4932800;28;20214;-83
2022/09/05 01:00:35;;;;;;;0.50;0.50;;;;;;;;;;4932408;28;20237;-83
2022/09/05 01:03:18;;;;;;;0.40;0.40;;;;;;;;;;4941457;28;20226;-84
2022/09/05 01:05:57;;;;;;;0.43;0.43;;;;;;;;;;4913341;28;20230;-83
2022/09/05 01:08:31;;;;;;;0.50;0.50;;;;;;;;;;4923882;29;20309;-85
2022/09/05 01:11:02;;;;;;;0.40;0.40;;;;;;;;;;4948855;28;20240;-84
2022/09/05 01:13:34;;;;;;;0.40;0.40;;;;;;;;;;4951972;28;20193;-83
2022/09/05 01:16:06;;;;;;;0.50;0.50;;;;;;;;;;4951340;28;20237;-84
2022/09/05 01:18:39;;;;;;;0.40;0.40;;;;;;;;;;4951883;28;20194;-84
2022/09/05 01:21:23;;;;;;;0.50;0.50;;;;;;;;;;4951037;28;20628;-84
2022/09/05 01:23:58;;;;;;;0.40;0.40;;;;;;;;;;4951738;29;20553;-83
2022/09/05 01:26:43;;;;;;;0.50;0.50;;;;;;;;;;4951689;28;20245;-83
2022/09/05 01:29:14;;;;;;;0.30;0.30;;;;;;;;;;4951154;28;20213;-83
2022/09/05 01:31:45;;;;;;;0.60;0.60;;;;;;;;;;4951474;28;20241;-84
2022/09/05 01:34:14;;;;;;;0.77;0.77;;;;;;;;;;4951437;28;20248;-83
2022/09/05 01:36:51;;;;;;;0.63;0.63;;;;;;;;;;4951853;28;20210;-84
2022/09/05 01:39:20;;;;;;;0.50;0.50;;;;;;;;;;4951304;28;20252;-83
2022/09/05 01:41:53;;;;;;;0.30;0.30;;;;;;;;;;4951213;28;20636;-84
2022/09/05 01:44:27;;;;;;;0.60;0.60;;;;;;;;;;4951087;28;20257;-83
2022/09/05 01:46:58;;;;;;;0.57;0.57;;;;;;;;;;4951445;28;20224;-84
2022/09/05 01:49:34;;;;;;;1.07;0.63;;;;;;;;;;4951083;28;20245;-83
2022/09/05 01:52:19;;;;;;;0.70;0.70;;;;;;;;;;4951231;29;20229;-84
2022/09/05 01:54:50;;;;;;;2.00;0.63;;;;;;;;;;4931918;28;20329;-84
2022/09/05 01:57:21;;;;;;;0.40;0.40;;;;;;;;;;4932463;29;20532;-84
2022/09/05 01:59:53;;;;;;;0.50;0.50;;;;;;;;;;4932027;28;20241;-83
2022/09/05 02:02:23;;;;;;;0.40;0.40;;;;;;;;;;4931893;29;20230;-84
2022/09/05 02:05:03;;;;;;;0.40;0.40;;;;;;;;;;4931676;28;20724;-83
2022/09/05 02:07:35;;;;;;;0.47;0.47;;;;;;;;;;4934033;29;20225;-83
2022/09/05 02:10:19;;;;;;;0.40;0.40;;;;;;;;;;4935091;28;20238;-83
2022/09/05 02:12:48;;;;;;;1.00;1.00;;;;;;;;;;4953949;29;20229;-83
2022/09/05 02:15:18;;;;;;;0.67;0.67;;;;;;;;;;4954048;28;20256;-83
2022/09/05 02:17:49;;;;;;;0.50;0.50;;;;;;;;;;4954760;28;20206;-83
2022/09/05 02:20:18;;;;;;;0.40;0.40;;;;;;;;;;4954213;28;20249;-83
2022/09/05 02:22:49;;;;;;;0.60;0.60;;;;;;;;;;4954543;28;20234;-83
2022/09/05 02:25:17;;;;;;;0.50;0.50;;;;;;;;;;4954307;28;20268;-83
2022/09/05 02:27:48;;;;;;;0.60;0.60;;;;;;;;;;4954339;29;20561;-84
2022/09/05 02:30:18;;;;;;;0.60;0.60;;;;;;;;;;4953931;28;20237;-84
2022/09/05 02:32:52;;;;;;;0.40;0.40;;;;;;;;;;4954027;28;20268;-83
2022/09/05 02:35:23;;;;;;;0.50;0.50;;;;;;;;;;4953713;28;20259;-83
2022/09/05 02:37:52;;;;;;;0.80;0.80;;;;;;;;;;4954583;28;20229;-84
2022/09/05 02:40:22;;;;;;;0.60;0.60;;;;;;;;;;4953985;28;20241;-83
2022/09/05 02:42:55;;;;;;;0.60;0.60;;;;;;;;;;4953188;28;20228;-83
2022/09/05 02:45:38;;;;;;;0.47;0.47;;;;;;;;;;4953459;28;20663;-83
2022/09/05 02:48:09;;;;;;;0.40;0.40;;;;;;;;;;4953276;28;20217;-84
2022/09/05 02:50:41;;;;;;;2.10;1.00;;;;;;;;;;4951890;28;20248;-83
2022/09/05 02:53:12;;;;;;;0.50;0.50;;;;;;;;;;4955889;28;20229;-83
2022/09/05 02:55:49;;;;;;;0.40;0.40;;;;;;;;;;4954595;28;20237;-83
2022/09/05 02:58:25;;;;;;;0.60;0.60;;;;;;;;;;4955823;28;20193;-83
2022/09/05 03:01:00;;;;;;;0.50;0.50;;;;;;;;;;4974284;28;20235;-84
2022/09/05 03:03:33;;;;;;;0.57;0.57;;;;;;;;;;5038565;28;20255;-84
2022/09/05 03:06:04;;;;;;;0.50;0.50;;;;;;;;;;4984553;28;20233;-84
2022/09/05 03:08:42;;;;;;;0.50;0.50;;;;;;;;;;4953789;28;20205;-83
2022/09/05 03:11:25;;;;;;;0.60;0.60;;;;;;;;;;4952812;28;20659;-83
2022/09/05 03:14:13;;;;;;;0.60;0.60;;;;;;;;;;4952996;28;20194;-83
2022/09/05 03:17:04;;;;;;;0.40;0.40;;;;;;;;;;4949440;28;20227;-83
2022/09/05 03:19:49;;;;;;;0.50;0.50;;;;;;;;;;5023878;28;20234;-83
2022/09/05 03:22:48;;;;;;;0.50;0.50;;;;;;;;;;4972962;28;20240;-83
2022/09/05 03:25:39;;;;;;;0.40;0.40;;;;;;;;;;4933324;28;20242;-83
2022/09/05 03:28:21;;;;;;;1.80;0.70;;;;;;;;;;4934196;29;20597;-84
2022/09/05 03:30:56;;;;;;;0.70;0.70;;;;;;;;;;4940531;28;20260;-83
2022/09/05 03:33:37;;;;;;;0.70;0.70;;;;;;;;;;4934656;29;20198;-86
2022/09/05 03:36:23;;;;;;;0.60;0.60;;;;;;;;;;4934911;28;20610;-86
2022/09/05 03:39:14;;;;;;;0.50;0.50;;;;;;;;;;4938752;28;20206;-86
2022/09/05 03:41:53;;;;;;;0.77;0.77;;;;;;;;;;4955680;28;20231;-86
2022/09/05 03:44:25;;;;;;;0.60;0.60;;;;;;;;;;4989293;28;20238;-83
2022/09/05 03:47:04;;;;;;;0.70;0.70;;;;;;;;;;4934368;29;20190;-84
2022/09/05 03:49:52;;;;;;;0.73;0.73;;;;;;;;;;4933768;28;20242;-84
2022/09/05 03:52:25;;;;;;;0.50;0.50;;;;;;;;;;4933849;29;20226;-84
2022/09/05 03:55:11;;;;;;;0.50;0.50;;;;;;;;;;4933637;28;20325;-85
2022/09/05 03:58:02;;;;;;;0.73;0.73;;;;;;;;;;4934531;29;20194;-84
2022/09/05 04:00:32;;;;;;;0.50;0.50;;;;;;;;;;4947303;28;20242;-84
2022/09/05 04:03:03;;;;;;;0.73;0.73;;;;;;;;;;4933902;29;20268;-84
2022/09/05 04:05:31;;;;;;;0.60;0.60;;;;;;;;;;4933566;28;20238;-84
2022/09/05 04:08:01;;;;;;;0.60;0.60;;;;;;;;;;4958351;28;20198;-84
2022/09/05 04:10:32;;;;;;;0.80;0.80;;;;;;;;;;5033200;28;20237;-86
2022/09/05 04:13:01;;;;;;;0.50;0.50;;;;;;;;;;5033712;28;20227;-87
2022/09/05 04:15:36;;;;;;;0.80;0.80;;;;;;;;;;5033585;28;20257;-85
2022/09/05 04:18:04;;;;;;;0.50;0.50;;;;;;;;;;5033649;28;20637;-85
2022/09/05 04:20:37;;;;;;;0.60;0.60;;;;;;;;;;5032978;28;20299;-85
2022/09/05 04:23:17;;;;;;;0.60;0.60;;;;;;;;;;5033315;28;20634;-85
2022/09/05 04:25:54;;;;;;;0.50;0.50;;;;;;;;;;5032852;28;20230;-85
2022/09/05 04:28:32;;;;;;;0.60;0.60;;;;;;;;;;5033688;28;20201;-84
2022/09/05 04:31:03;;;;;;;0.60;0.60;;;;;;;;;;5032008;28;20263;-84
2022/09/05 04:33:35;;;;;;;0.67;0.67;;;;;;;;;;5033113;28;20210;-85
2022/09/05 04:36:13;;;;;;;0.80;0.80;;;;;;;;;;5032648;28;20242;-85
2022/09/05 04:38:41;;;;;;;0.63;0.63;;;;;;;;;;5033106;28;20178;-85
2022/09/05 04:41:09;;;;;;;0.73;0.73;;;;;;;;;;5032451;28;20292;-84
2022/09/05 04:43:40;;;;;;;0.57;0.57;;;;;;;;;;5033838;28;20206;-85
2022/09/05 04:46:11;;;;;;;0.83;0.83;;;;;;;;;;5033529;28;20242;-85
2022/09/05 04:48:41;;;;;;;0.50;0.50;;;;;;;;;;5036205;28;20308;-85
2022/09/05 04:51:09;;;;;;;0.50;0.50;;;;;;;;;;5537637;22;20229;-84
2022/09/05 04:53:46;;;;;;;0.60;0.60;;;;;;;;;;5076129;28;20205;-84
2022/09/05 04:56:15;;;;;;;0.70;0.70;;;;;;;;;;5077075;28;20316;-86
2022/09/05 04:58:45;;;;;;;0.40;0.40;;;;;;;;;;5075170;28;20213;-85
2022/09/05 05:01:15;;;;;;;0.67;0.67;;;;;;;;;;5070876;28;20321;-85
2022/09/05 05:03:43;;;;;;;0.80;0.80;;;;;;;;;;5067120;28;20214;-84
2022/09/05 05:06:13;;;;;;;0.50;0.50;;;;;;;;;;5054552;28;20336;-84
2022/09/05 05:08:43;;;;;;;0.80;0.80;;;;;;;;;;5058653;28;20304;-84
2022/09/05 05:11:12;;;;;;;0.70;0.70;;;;;;;;;;5068903;28;20261;-83
2022/09/05 05:13:42;;;;;;;0.60;0.60;;;;;;;;;;5068316;28;20274;-82
2022/09/05 05:16:13;;;;;;;0.60;0.60;;;;;;;;;;5061005;28;20234;-83
2022/09/05 05:18:45;;;;;;;0.67;0.67;;;;;;;;;;5053682;28;20198;-82
2022/09/05 05:21:17;;;;;;;0.60;0.60;;;;;;;;;;5052923;28;20237;-83
2022/09/05 05:23:46;;;;;;;0.70;0.70;;;;;;;;;;5053714;28;20190;-82
2022/09/05 05:26:20;;;;;;;0.67;0.67;;;;;;;;;;5060262;28;20290;-86
2022/09/05 05:28:50;;;;;;;0.67;0.67;;;;;;;;;;5057160;28;20210;-82
2022/09/05 05:31:20;;;;;;;0.60;0.60;;;;;;;;;;5056482;28;20233;-82
2022/09/05 05:33:49;;;;;;;0.70;0.70;;;;;;;;;;5057129;28;20252;-83
2022/09/05 05:36:18;;;;;;;0.73;0.73;;;;;;;;;;5055250;28;20245;-82
2022/09/05 05:38:49;;;;;;;0.60;0.60;;;;;;;;;;5055500;28;20206;-83
2022/09/05 05:41:20;;;;;;;0.60;0.60;;;;;;;;;;5055640;28;20648;-83
2022/09/05 05:43:48;;;;;;;0.60;0.60;;;;;;;;;;5057876;28;20206;-83
2022/09/05 05:46:23;;;;;;;0.80;0.80;;;;;;;;;;5058169;28;20213;-82
2022/09/05 05:48:53;;;;;;;0.67;0.67;;;;;;;;;;5057231;28;20186;-83
2022/09/05 05:51:33;;;;;;;0.53;0.53;;;;;;;;;;5057724;28;20242;-83
2022/09/05 05:54:01;;;;;;;0.90;0.80;;;;;;;;;;5057222;28;20252;-82
2022/09/05 05:56:39;;;;;;;0.50;0.50;;;;;;;;;;5057530;28;20226;-83
2022/09/05 05:59:15;;;;;;;0.60;0.60;;;;;;;;;;5056956;28;20304;-82
2022/09/05 06:02:04;;;;;;;1.07;1.07;;;;;;;;;;5057574;28;20222;-82
2022/09/05 06:04:50;;;;;;;0.60;0.60;;;;;;;;;;5057295;28;20260;-83
2022/09/05 06:07:22;;;;;;;0.70;0.70;;;;;;;;;;5058021;28;20209;-84
2022/09/05 06:10:10;;;;;;;0.93;0.93;;;;;;;;;;5057526;28;20244;-83
2022/09/05 06:12:51;;;;;;;0.70;0.70;;;;;;;;;;5054089;28;20226;-84
2022/09/05 06:15:34;;;;;;;0.43;0.43;;;;;;;;;;5058256;28;20237;-82
2022/09/05 06:18:20;;;;;;;0.87;0.70;;;;;;;;;;5058529;28;20187;-83
2022/09/05 06:21:05;;;;;;;0.60;0.60;;;;;;;;;;5057875;28;20254;-82
2022/09/05 06:23:44;;;;;;;0.70;0.70;;;;;;;;;;5058814;28;20642;-82
2022/09/05 06:26:29;;;;;;;0.80;0.80;;;;;;;;;;5058274;28;20560;-82
2022/09/05 06:29:03;;;;;;;0.80;0.80;;;;;;;;;;5058377;28;20271;-82
2022/09/05 06:31:51;;;;;;;0.90;0.90;;;;;;;;;;5072283;22;20236;-85
2022/09/05 06:34:26;;;;;;;0.60;0.60;;;;;;;;;;5030182;28;20242;-85
2022/09/05 06:36:59;;;;;;;0.50;0.50;;;;;;;;;;5036434;28;20241;-85
2022/09/05 06:39:35;;;;;;;0.73;0.73;;;;;;;;;;5035810;28;20242;-85
2022/09/05 06:42:11;;;;;;;0.70;0.70;;;;;;;;;;5042334;28;20248;-86
2022/09/05 06:44:46;;;;;;;0.70;0.70;;;;;;;;;;5055603;28;20237;-85
2022/09/05 06:47:15;;;;;;;0.80;0.80;;;;;;;;;;5055361;28;20661;-85
2022/09/05 06:49:59;;;;;;;0.50;0.50;;;;;;;;;;5054732;28;20234;-84
2022/09/05 06:52:57;;;;;;;0.60;0.60;;;;;;;;;;5054995;28;20233;-85
2022/09/05 06:55:34;;;;;;;0.70;0.70;;;;;;;;;;5032781;28;20745;-85
2022/09/05 06:58:19;;;;;;;0.90;0.90;;;;;;;;;;5051370;28;20237;-85
2022/09/05 07:00:48;;;;;;;1.10;1.10;;;;;;;;;;5054558;28;20238;-85
2022/09/05 07:03:22;;;;;;;0.40;0.40;;;;;;;;;;5054942;28;20230;-85
2022/09/05 07:05:53;;;;;;;0.63;0.63;;;;;;;;;;5054259;28;20234;-83
2022/09/05 07:08:25;;;;;;;0.60;0.60;;;;;;;;;;5054897;28;20191;-84
2022/09/05 07:10:57;;;;;;;0.40;0.40;;;;;;;;;;5053964;28;20256;-85
2022/09/05 07:13:26;;;;;;;0.67;0.67;;;;;;;;;;5054204;28;20218;-84
2022/09/05 07:15:57;;;;;;;0.50;0.50;;;;;;;;;;5053901;28;20233;-84
2022/09/05 07:18:27;;;;;;;0.40;0.40;;;;;;;;;;5054674;28;20217;-84
2022/09/05 07:20:56;;;;;;;0.70;0.70;;;;;;;;;;5054846;28;20240;-84
2022/09/05 07:23:35;;;;;;;0.40;0.40;;;;;;;;;;5055491;28;20233;-84
2022/09/05 07:26:04;;;;;;;1.07;1.07;;;;;;;;;;5055044;28;20241;-84
2022/09/05 07:28:32;;;;;;;0.40;0.40;;;;;;;;;;5054603;28;20603;-84
2022/09/05 07:31:01;;;;;;;0.50;0.50;;;;;;;;;;5054123;28;20234;-84
2022/09/05 07:33:30;;;;;;;1.13;0.80;;;;;;;;;;5054736;28;20241;-84
2022/09/05 07:36:03;;;;;;;0.30;0.30;;;;;;;;;;5053687;28;20254;-84
2022/09/05 07:38:33;;;;;;;0.33;0.33;;;;;;;;;;5054776;28;20190;-84
2022/09/05 07:41:02;;;;;;;0.33;0.33;;;;;;;;;;5054038;28;20250;-84
2022/09/05 07:43:34;;;;;;;0.50;0.50;;;;;;;;;;5056192;28;20226;-84
2022/09/05 07:46:10;;;;;;;0.50;0.32;;;;;;;;;;5065583;28;20321;-84
2022/09/05 07:48:39;;;;;;;0.45;0.45;;;;;;;;;;5055510;28;20576;-84
2022/09/05 07:51:08;;;;;;;0.20;0.20;;;;;;;;;;5054777;28;20347;-84
2022/09/05 07:53:37;;;;;;;0.43;0.43;;;;;;;;;;5054959;28;20229;-84
2022/09/05 07:56:05;;;;;;;0.30;0.30;;;;;;;;;;5054591;28;20625;-87
2022/09/05 07:58:40;;;;;;;0.20;0.20;;;;;;;;;;5054620;28;20212;-86
2022/09/05 08:01:07;;;;;;;0.30;0.30;;;;;;;;;;5054934;28;20642;-86
2022/09/05 08:03:34;;;;;;;0.40;0.40;;;;;;;;;;5054210;28;20226;-86
2022/09/05 08:06:04;;;;;;;0.40;0.40;;;;;;;;;;5053464;28;20261;-84
2022/09/05 08:08:34;;;;;;;0.52;0.52;;;;;;;;;;5053918;28;20225;-84
2022/09/05 08:11:04;;;;;;;0.30;0.30;;;;;;;;;;5053739;28;20241;-86
2022/09/05 08:13:47;;;;;;;0.40;0.40;;;;;;;;;;5054334;28;20226;-86
2022/09/05 08:16:15;;;;;;;0.30;0.30;;;;;;;;;;5053102;28;20229;-85
2022/09/05 08:18:46;;;;;;;0.80;0.65;;;;;;;;;;5053423;28;20678;-87
2022/09/05 08:21:14;;;;;;;0.25;0.25;;;;;;;;;;5036576;28;20254;-86
2022/09/05 08:23:49;;;;;;;1.00;0.30;;;;;;;;;;5033240;28;20605;-86
2022/09/05 08:26:20;;;;;;;0.20;0.20;;;;;;;;;;5033353;28;20214;-86
2022/09/05 08:28:54;;;;;;;0.30;0.30;;;;;;;;;;5033251;28;20213;-86
2022/09/05 08:31:24;;;;;;;0.25;0.25;;;;;;;;;;5033050;28;20233;-86
2022/09/05 08:33:54;;;;;;;0.28;0.28;;;;;;;;;;5032469;28;20207;-86
2022/09/05 08:36:26;;;;;;;0.30;0.30;;;;;;;;;;5033335;28;20210;-85
2022/09/05 08:38:53;;;;;;;0.20;0.20;;;;;;;;;;5032629;28;20203;-86
2022/09/05 08:41:25;;;;;;;0.30;0.30;;;;;;;;;;5033619;28;20213;-86
2022/09/05 08:43:56;;;;;;;0.00;0.00;;;;;;;;;;5033467;28;20187;-86
2022/09/05 08:46:27;;;;;;;0.20;0.20;;;;;;;;;;5046373;28;20183;-86
2022/09/05 08:49:08;;;;;;;0.10;0.10;;;;;;;;;;5036538;28;20660;-86
2022/09/05 08:51:39;;;;;;;0.10;0.10;;;;;;;;;;5036766;28;20217;-86
2022/09/05 08:54:29;;;;;;;0.32;0.32;;;;;;;;;;5032726;28;20214;-86
2022/09/05 08:57:00;;;;;;;0.20;0.20;;;;;;;;;;5032707;28;20261;-86
2022/09/05 08:59:34;;;;;;;0.20;0.20;;;;;;;;;;5032264;28;20238;-86
2022/09/05 09:02:11;;;;;;;0.32;0.32;;;;;;;;;;5045541;28;20225;-86
2022/09/05 09:05:01;;;;;;;0.10;0.10;;;;;;;;;;5052190;28;20321;-86
2022/09/05 09:07:33;;;;;;;0.32;0.30;;;;;;;;;;5033022;28;20191;-86
2022/09/05 09:10:03;;;;;;;0.38;0.38;;;;;;;;;;5032417;28;20234;-86
2022/09/05 09:12:45;;;;;;;0.10;0.10;;;;;;;;;;5032864;28;20317;-87
2022/09/05 09:15:19;;;;;;;0.20;0.20;;;;;;;;;;5030567;28;20238;-86
2022/09/05 09:17:48;;;;;;;0.20;0.20;;;;;;;;;;5036602;28;20301;-86
2022/09/05 09:20:18;;;;;;;0.40;0.40;;;;;;;;;;5036352;28;20288;-86
2022/09/05 09:22:51;;;;;;;0.28;0.28;;;;;;;;;;5036522;28;20231;-86
2022/09/05 09:25:22;;;;;;;0.10;0.10;;;;;;;;;;5036192;28;20241;-86
2022/09/05 09:28:04;;;;;;;0.10;0.10;;;;;;;;;;5036950;28;20218;-86
2022/09/05 09:30:34;;;;;;;0.08;0.08;;;;;;;;;;5032949;28;20246;-87
2022/09/05 09:33:04;;;;;;;0.10;0.10;;;;;;;;;;5036425;28;20321;-86
2022/09/05 09:35:37;;;;;;;0.10;0.10;;;;;;;;;;5035725;28;20230;-86
2022/09/05 09:38:14;;;;;;;0.05;0.05;;;;;;;;;;5036283;28;20222;-87
2022/09/05 09:40:55;;;;;;;0.25;0.25;;;;;;;;;;5035783;28;20246;-87
2022/09/05 09:43:26;;;;;;;0.38;0.38;;;;;;;;;;5036207;28;20749;-87
2022/09/05 09:46:11;;;;;;;0.22;0.22;;;;;;;;;;5035965;28;20343;-87
2022/09/05 09:48:55;;;;;;;0.20;0.20;;;;;;;;;;5036229;28;20195;-87
2022/09/05 09:51:35;;;;;;;0.30;0.30;;;;;;;;;;5036040;28;20210;-86
2022/09/05 09:54:09;;;;;;;0.17;0.17;;;;;;;;;;5035815;28;20556;-87
2022/09/05 09:56:51;;;;;;;0.10;0.10;;;;;;;;;;5036034;28;20183;-87
2022/09/05 09:59:29;;;;;;;0.00;0.00;;;;;;;;;;5033391;28;20230;-88
2022/09/05 10:02:14;;;;;;;0.10;0.10;;;;;;;;;;5036204;28;20300;-87
2022/09/05 10:04:49;;;;;;;0.13;0.13;;;;;;;;;;5035805;28;20612;-87
2022/09/05 10:07:41;;;;;;;0.10;0.10;;;;;;;;;;5036238;28;20195;-86
2022/09/05 10:10:43;;;;;;;0.25;0.25;;;;;;;;;;5035507;28;20249;-87
2022/09/05 10:13:21;;;;;;;0.00;0.00;;;;;;;;;;5055480;28;20225;-87
2022/09/05 10:16:03;;;;;;;0.10;0.10;;;;;;;;;;5055120;28;20238;-87
2022/09/05 10:18:46;;;;;;;0.00;0.00;;;;;;;;;;5055558;28;20210;-87
2022/09/05 10:21:32;;;;;;;0.20;0.20;;;;;;;;;;5054644;28;20639;-87
2022/09/05 10:24:20;;;;;;;0.10;0.10;;;;;;;;;;5053514;28;20556;-87
2022/09/05 10:27:02;;;;;;;0.10;0.10;;;;;;;;;;5025709;28;20238;-87
2022/09/05 10:29:42;;;;;;;0.10;0.10;;;;;;;;;;5034871;28;20237;-88
2022/09/05 10:32:12;;;;;;;0.10;0.10;;;;;;;;;;5035031;28;20237;-86
2022/09/05 10:34:46;;;;;;;0.10;0.10;;;;;;;;;;5034867;28;20238;-86
2022/09/05 10:37:14;;;;;;;0.30;0.30;;;;;;;;;;5044766;28;20206;-86
2022/09/05 10:39:42;;;;;;;0.10;0.10;;;;;;;;;;5038192;28;20721;-87
2022/09/05 10:42:13;;;;;;;0.10;0.10;;;;;;;;;;5035351;28;20230;-87
2022/09/05 10:44:44;;;;;;;0.05;0.05;;;;;;;;;;5038239;28;20317;-87
2022/09/05 10:47:18;;;;;;;0.05;0.05;;;;;;;;;;5037776;28;20218;-88
2022/09/05 10:49:49;;;;;;;0.00;0.00;;;;;;;;;;5036116;28;20581;-88
2022/09/05 10:52:18;;;;;;;0.20;0.20;;;;;;;;;;5035967;28;20225;-88
2022/09/05 10:55:16;;;;;;;0.05;0.05;;;;;;;;;;5034813;28;20593;-87
2022/09/05 10:57:57;;;;;;;0.10;0.10;;;;;;;;;;4993533;28;20224;-87
2022/09/05 11:00:37;;;;;;;0.00;0.00;;;;;;;;;;5043240;28;20218;-88
2022/09/05 11:03:05;;;;;;;0.15;0.15;;;;;;;;;;5039803;28;20222;-87
2022/09/05 11:05:36;;;;;;;0.00;0.00;;;;;;;;;;5038474;28;20238;-86
2022/09/05 11:08:06;;;;;;;0.10;0.10;;;;;;;;;;5036320;28;20193;-87
2022/09/05 11:10:38;;;;;;;0.10;0.10;;;;;;;;;;5034417;28;20238;-86
2022/09/05 11:13:23;;;;;;;0.15;0.15;;;;;;;;;;5034508;28;20321;-88
2022/09/05 11:15:57;;;;;;;0.40;0.40;;;;;;;;;;5033533;28;20237;-86
2022/09/05 11:18:33;;;;;;;0.30;0.30;;;;;;;;;;5034591;28;20218;-88
2022/09/05 11:21:07;;;;;;;0.10;0.10;;;;;;;;;;5034837;28;20253;-88
2022/09/05 11:23:40;;;;;;;0.10;0.10;;;;;;;;;;5034894;28;20722;-87
2022/09/05 11:26:07;;;;;;;0.32;0.32;;;;;;;;;;5033593;28;20734;-86
2022/09/05 11:28:38;;;;;;;0.20;0.20;;;;;;;;;;5033947;28;20202;-88
2022/09/05 11:31:09;;;;;;;0.10;0.10;;;;;;;;;;5032980;28;20291;-87
2022/09/05 11:33:48;;;;;;;0.10;0.10;;;;;;;;;;5033776;28;20234;-88
2022/09/05 11:36:19;;;;;;;0.00;0.00;;;;;;;;;;5033545;28;20221;-88
2022/09/05 11:38:51;;;;;;;0.20;0.20;;;;;;;;;;5033162;28;20682;-88
2022/09/05 11:41:31;;;;;;;0.13;0.13;;;;;;;;;;5053370;28;20271;-88
2022/09/05 11:44:08;;;;;;;0.00;0.00;;;;;;;;;;5052005;28;20190;-88
2022/09/05 11:46:37;;;;;;;0.20;0.20;;;;;;;;;;5034085;28;20206;-88
2022/09/05 11:49:20;;;;;;;0.00;0.00;;;;;;;;;;5033550;28;20193;-89
2022/09/05 11:52:11;;;;;;;0.25;0.25;;;;;;;;;;5034161;28;20238;-85
2022/09/05 11:55:09;;;;;;;0.15;0.15;;;;;;;;;;5038634;28;20234;-86
2022/09/05 11:57:45;;;;;;;0.10;0.10;;;;;;;;;;5042674;28;20264;-87
2022/09/05 12:00:16;;;;;;;0.20;0.20;;;;;;;;;;5033383;28;20237;-86
2022/09/05 12:03:13;;;;;;;0.30;0.30;;;;;;;;;;5032999;28;20230;-86
2022/09/05 12:05:53;;;;;;;0.00;0.00;;;;;;;;;;5032462;28;20720;-89
2022/09/05 12:08:24;;;;;;;0.10;0.10;;;;;;;;;;5030913;28;20202;-87
2022/09/05 12:11:00;;;;;;;0.10;0.10;;;;;;;;;;5012276;28;20234;-88
2022/09/05 12:13:36;;;;;;;0.10;0.10;;;;;;;;;;5032786;28;20230;-88
2022/09/05 12:16:07;;;;;;;0.17;0.17;;;;;;;;;;5031878;28;20233;-87
2022/09/05 12:18:40;;;;;;;0.10;0.10;;;;;;;;;;5032484;28;20241;-87
2022/09/05 12:21:19;;;;;;;0.10;0.10;;;;;;;;;;5031175;28;20241;-88
2022/09/05 12:23:50;;;;;;;0.08;0.08;;;;;;;;;;5032305;28;20524;-88
2022/09/05 12:26:22;;;;;;;0.32;0.20;;;;;;;;;;5031931;28;20236;-87
2022/09/05 12:28:51;;;;;;;0.10;0.10;;;;;;;;;;5032520;28;20552;-88
2022/09/05 12:31:20;;;;;;;0.15;0.15;;;;;;;;;;5052431;28;20210;-88
2022/09/05 12:33:50;;;;;;;0.20;0.20;;;;;;;;;;5053108;28;20220;-89
2022/09/05 12:36:19;;;;;;;0.40;0.20;;;;;;;;;;5030455;28;20234;-89
2022/09/05 12:38:50;;;;;;;0.08;0.08;;;;;;;;;;5032535;28;20226;-89
2022/09/05 12:41:19;;;;;;;0.08;0.08;;;;;;;;;;5051923;28;20221;-88
2022/09/05 12:44:00;;;;;;;0.05;0.05;;;;;;;;;;5052397;28;20590;-89
2022/09/05 12:46:32;;;;;;;0.17;0.17;;;;;;;;;;5032726;28;20218;-88
2022/09/05 12:49:03;;;;;;;0.00;0.00;;;;;;;;;;5023997;28;20309;-91
2022/09/05 12:51:32;;;;;;;0.20;0.20;;;;;;;;;;5012617;28;20205;-88
2022/09/05 12:54:00;;;;;;;0.00;0.00;;;;;;;;;;5012275;28;20242;-88
2022/09/05 12:56:31;;;;;;;0.00;0.00;;;;;;;;;;5013474;28;20595;-89
2022/09/05 12:59:01;;;;;;;0.10;0.10;;;;;;;;;;5013017;28;20583;-89
2022/09/05 13:01:29;;;;;;;0.10;0.10;;;;;;;;;;5015319;28;20276;-88
2022/09/05 13:03:58;;;;;;;0.25;0.25;;;;;;;;;;5032727;28;20210;-89
2022/09/05 13:06:28;;;;;;;0.30;0.30;;;;;;;;;;5033141;28;20219;-90
2022/09/05 13:08:57;;;;;;;0.00;0.00;;;;;;;;;;5033357;28;20533;-89
2022/09/05 13:11:25;;;;;;;0.20;0.20;;;;;;;;;;5033924;28;20242;-89
2022/09/05 13:13:53;;;;;;;0.10;0.10;;;;;;;;;;5033020;28;20209;-88
2022/09/05 13:16:24;;;;;;;0.05;0.05;;;;;;;;;;5034303;28;20234;-88
2022/09/05 13:19:01;;;;;;;0.05;0.05;;;;;;;;;;5045036;28;20209;-88
2022/09/05 13:21:29;;;;;;;0.10;0.10;;;;;;;;;;5036346;28;20969;-88
2022/09/05 13:24:04;;;;;;;0.25;0.25;;;;;;;;;;5036452;28;20651;-89
2022/09/05 13:26:35;;;;;;;0.32;0.32;;;;;;;;;;5035282;28;20197;-88
2022/09/05 13:29:04;;;;;;;0.00;0.00;;;;;;;;;;5030148;28;20186;-88
2022/09/05 13:31:53;;;;;;;0.10;0.10;;;;;;;;;;5017973;28;20203;-89
2022/09/05 13:34:24;;;;;;;0.13;0.13;;;;;;;;;;5014334;28;20257;-89
2022/09/05 13:36:54;;;;;;;0.10;0.10;;;;;;;;;;5015377;28;20203;-89
2022/09/05 13:39:26;;;;;;;0.10;0.10;;;;;;;;;;5014825;28;20231;-88
2022/09/05 13:41:58;;;;;;;0.10;0.10;;;;;;;;;;5015951;28;20246;-89
2022/09/05 13:44:26;;;;;;;0.10;0.10;;;;;;;;;;5015503;28;20730;-89
2022/09/05 13:46:54;;;;;;;0.10;0.10;;;;;;;;;;5015385;28;20207;-90
2022/09/05 13:49:24;;;;;;;0.10;0.10;;;;;;;;;;5020824;28;20309;-89
2022/09/05 13:51:52;;;;;;;0.45;0.45;;;;;;;;;;5014355;28;20897;-89
2022/09/05 13:54:35;;;;;;;0.10;0.10;;;;;;;;;;5013836;28;20258;-89
2022/09/05 13:57:15;;;;;;;0.10;0.10;;;;;;;;;;5016061;28;20246;-89
2022/09/05 13:59:43;;;;;;;0.08;0.03;;;;;;;;;;5013455;28;20246;-89
2022/09/05 14:02:29;;;;;;;0.08;0.08;;;;;;;;;;5015779;28;20265;-88
2022/09/05 14:05:12;;;;;;;0.22;0.17;;;;;;;;;;5016801;28;20246;-88
2022/09/05 14:07:44;;;;;;;0.20;0.20;;;;;;;;;;5017337;28;20217;-88
2022/09/05 14:10:27;;;;;;;0.35;0.25;;;;;;;;;;5016173;28;20235;-89
2022/09/05 14:13:01;;;;;;;0.20;0.20;;;;;;;;;;5016585;28;20273;-89
2022/09/05 14:15:35;;;;;;;0.00;0.00;;;;;;;;;;5020119;28;20233;-88
2022/09/05 14:18:05;;;;;;;0.10;0.10;;;;;;;;;;5017457;28;20196;-88
2022/09/05 14:23:21;;;;;;;0.00;0.00;;;;;;;;;;5036955;28;20317;-87
2022/09/05 14:25:51;;;;;;;0.20;0.20;;;;;;;;;;5028875;28;20226;-86
2022/09/05 14:28:21;;;;;;;0.20;0.20;;;;;;;;;;5015519;28;20257;-87
2022/09/05 14:30:49;;;;;;;0.10;0.10;;;;;;;;;;5031324;28;20931;-86
2022/09/05 14:33:29;;;;;;;0.10;0.10;;;;;;;;;;5035175;28;20234;-86
2022/09/05 14:36:01;;;;;;;0.20;0.20;;;;;;;;;;5034003;28;20233;-86
2022/09/05 14:38:40;;;;;;;0.00;0.00;;;;;;;;;;5034816;28;20222;-86
2022/09/05 14:41:27;;;;;;;0.20;0.20;;;;;;;;;;5033438;28;20312;-85
2022/09/05 14:44:20;;;;;;;0.15;0.15;;;;;;;;;;5034141;28;20233;-86
2022/09/05 14:47:00;;;;;;;0.20;0.20;;;;;;;;;;5035266;28;20253;-86
2022/09/05 14:49:48;;;;;;;0.13;0.13;;;;;;;;;;5034503;28;20242;-86
2022/09/05 14:52:18;;;;;;;0.10;0.10;;;;;;;;;;5028155;28;20254;-86
2022/09/05 14:54:51;;;;;;;0.08;0.08;;;;;;;;;;5034196;28;20235;-86
2022/09/05 14:57:20;;;;;;;0.08;0.08;;;;;;;;;;5034817;28;20221;-85
2022/09/05 14:59:49;;;;;;;0.00;0.00;;;;;;;;;;5047894;28;20261;-86
2022/09/05 15:02:20;;;;;;;0.00;0.00;;;;;;;;;;5054144;28;20616;-87
2022/09/05 15:04:49;;;;;;;0.05;0.05;;;;;;;;;;5054327;28;20595;-81
2022/09/05 15:07:20;;;;;;;0.00;0.00;;;;;;;;;;5053261;28;20202;-87
2022/09/05 15:09:48;;;;;;;0.00;0.00;;;;;;;;;;5053257;28;20234;-83
2022/09/05 15:12:17;;;;;;;0.10;0.10;;;;;;;;;;5053527;28;20245;-83
2022/09/05 15:14:51;;;;;;;0.08;0.08;;;;;;;;;;5050813;28;20233;-85
2022/09/05 15:17:21;;;;;;;0.00;0.00;;;;;;;;;;5034321;28;20202;-86
2022/09/05 15:19:50;;;;;;;0.30;0.30;;;;;;;;;;5049548;28;20261;-84
2022/09/05 15:22:23;;;;;;;0.00;0.00;;;;;;;;;;5072970;28;20221;-83
2022/09/05 15:25:00;;;;;;;0.10;0.10;;;;;;;;;;5066140;28;20279;-83
2022/09/05 15:27:28;;;;;;;0.17;0.10;;;;;;;;;;5050650;28;20205;-83
2022/09/05 15:29:56;;;;;;;0.00;0.00;;;;;;;;;;5065728;28;20245;-85